sensor_id;sensor_type;location;lat;lon;timestamp;temperature;humidity
21565;DHT22;10943;48.738;9.320;2022-07-29T00:01:52;23.30;99.90
21565;DHT22;10943;48.738;9.320;2022-07-29T00:04:20;23.00;99.90
21565;DHT22;10943;48.738;9.320;2022-07-29T00:06:49;23.00;99.90
21565;DHT22;10943;48.738;9.320;2022-07-29T00:09:19;23.10;99.90
21565;DHT22;10943;48.738;9.320;2022-07-29T00:11:47;23.20;99.90
21565;DHT22;10943;48.738;9.320;2022-07-29T00:14:17;23.30;99.90
21565;DHT22;10943;48.738;9.320;2022-07-29T00:16:45;23.30;99.90
21565;DHT22;10943;48.738;9.320;2022-07-29T00:19:12;23.30;99.90
21565;DHT22;10943;48.738;9.320;2022-07-29T00:21:39;23.30;99.90
21565;DHT22;10943;48.738;9.320;2022-07-29T00:24:07;23.30;99.90
21565;DHT22;10943;48.738;9.320;2022-07-29T00:26:35;23.50;99.90
21565;DHT22;10943;48.738;9.320;2022-07-29T00:29:03;23.50;99.90
21565;DHT22;10943;48.738;9.320;2022-07-29T00:31:52;23.40;99.90
21565;DHT22;10943;48.738;9.320;2022-07-29T00:34:20;23.50;99.90
21565;DHT22;10943;48.738;9.320;2022-07-29T00:37:07;23.40;99.90
21565;DHT22;10943;48.738;9.320;2022-07-29T00:39:34;23.50;99.90
21565;DHT22;10943;48.738;9.320;2022-07-29T00:42:03;23.50;99.90
21565;DHT22;10943;48.738;9.320;2022-07-29T00:44:41;23.50;99.90
21565;DHT22;10943;48.738;9.320;2022-07-29T00:47:10;23.50;99.90
21565;DHT22;10943;48.738;9.320;2022-07-29T00:49:40;23.30;99.90
21565;DHT22;10943;48.738;9.320;2022-07-29T00:52:10;23.00;99.90
21565;DHT22;10943;48.738;9.320;2022-07-29T00:54:39;23.10;99.90
21565;DHT22;10943;48.738;9.320;2022-07-29T00:57:13;23.20;99.90
21565;DHT22;10943;48.738;9.320;2022-07-29T00:59:43;22.90;99.90
21565;DHT22;10943;48.738;9.320;2022-07-29T01:02:11;22.70;99.90
21565;DHT22;10943;48.738;9.320;2022-07-29T01:04:39;22.70;99.90
21565;DHT22;10943;48.738;9.320;2022-07-29T01:07:07;22.70;99.90
21565;DHT22;10943;48.738;9.320;2022-07-29T01:09:35;22.70;99.90
21565;DHT22;10943;48.738;9.320;2022-07-29T01:12:16;22.60;99.90
21565;DHT22;10943;48.738;9.320;2022-07-29T01:14:47;22.50;99.90
21565;DHT22;10943;48.738;9.320;2022-07-29T01:17:25;22.60;99.90
21565;DHT22;10943;48.738;9.320;2022-07-29T01:20:14;22.70;99.90
21565;DHT22;10943;48.738;9.320;2022-07-29T01:29:56;22.50;99.90
21565;DHT22;10943;48.738;9.320;2022-07-29T01:47:34;22.50;99.90
21565;DHT22;10943;48.738;9.320;2022-07-29T02:20:08;22.00;99.90
21565;DHT22;10943;48.738;9.320;2022-07-29T02:22:45;22.10;99.90
21565;DHT22;10943;48.738;9.320;2022-07-29T02:25:18;22.10;99.90
21565;DHT22;10943;48.738;9.320;2022-07-29T02:27:52;22.00;99.90
21565;DHT22;10943;48.738;9.320;2022-07-29T02:30:24;22.00;99.90
21565;DHT22;10943;48.738;9.320;2022-07-29T02:32:53;21.90;99.90
21565;DHT22;10943;48.738;9.320;2022-07-29T02:35:25;21.90;99.90
21565;DHT22;10943;48.738;9.320;2022-07-29T02:37:53;21.90;99.90
21565;DHT22;10943;48.738;9.320;2022-07-29T02:40:42;21.90;99.90
21565;DHT22;10943;48.738;9.320;2022-07-29T02:43:13;21.80;99.90
21565;DHT22;10943;48.738;9.320;2022-07-29T02:45:44;21.90;99.90
21565;DHT22;10943;48.738;9.320;2022-07-29T02:48:27;22.00;99.90
21565;DHT22;10943;48.738;9.320;2022-07-29T02:51:18;21.90;99.90
21565;DHT22;10943;48.738;9.320;2022-07-29T02:57:59;22.00;99.90
21565;DHT22;10943;48.738;9.320;2022-07-29T03:00:37;21.80;99.90
21565;DHT22;10943;48.738;9.320;2022-07-29T03:03:11;21.80;99.90
21565;DHT22;10943;48.738;9.320;2022-07-29T03:05:42;21.90;99.90
21565;DHT22;10943;48.738;9.320;2022-07-29T03:08:11;21.90;99.90
21565;DHT22;10943;48.738;9.320;2022-07-29T03:10:43;21.80;99.90
21565;DHT22;10943;48.738;9.320;2022-07-29T03:13:12;21.80;99.90
21565;DHT22;10943;48.738;9.320;2022-07-29T03:15:43;21.80;99.90
21565;DHT22;10943;48.738;9.320;2022-07-29T03:18:14;21.70;99.90
21565;DHT22;10943;48.738;9.320;2022-07-29T03:20:42;21.70;99.90
21565;DHT22;10943;48.738;9.320;2022-07-29T03:23:11;21.50;99.90
21565;DHT22;10943;48.738;9.320;2022-07-29T03:25:46;21.60;99.90
21565;DHT22;10943;48.738;9.320;2022-07-29T03:28:14;21.50;99.90
21565;DHT22;10943;48.738;9.320;2022-07-29T03:30:42;21.60;99.90
21565;DHT22;10943;48.738;9.320;2022-07-29T03:33:13;21.40;99.90
21565;DHT22;10943;48.738;9.320;2022-07-29T03:35:41;21.50;99.90
21565;DHT22;10943;48.738;9.320;2022-07-29T03:38:11;21.50;99.90
21565;DHT22;10943;48.738;9.320;2022-07-29T03:41:00;21.60;99.90
21565;DHT22;10943;48.738;9.320;2022-07-29T03:43:36;21.50;99.90
21565;DHT22;10943;48.738;9.320;2022-07-29T03:46:16;21.50;99.90
21565;DHT22;10943;48.738;9.320;2022-07-29T03:48:46;21.60;99.90
21565;DHT22;10943;48.738;9.320;2022-07-29T03:51:17;21.60;99.90
21565;DHT22;10943;48.738;9.320;2022-07-29T03:54:00;21.50;99.90
21565;DHT22;10943;48.738;9.320;2022-07-29T03:56:39;21.40;99.90
21565;DHT22;10943;48.738;9.320;2022-07-29T03:59:13;21.50;99.90
21565;DHT22;10943;48.738;9.320;2022-07-29T04:01:44;21.60;99.90
21565;DHT22;10943;48.738;9.320;2022-07-29T04:04:16;21.60;99.90
21565;DHT22;10943;48.738;9.320;2022-07-29T04:06:45;21.60;99.90
21565;DHT22;10943;48.738;9.320;2022-07-29T04:09:16;21.80;99.90
21565;DHT22;10943;48.738;9.320;2022-07-29T04:11:45;21.60;99.90
21565;DHT22;10943;48.738;9.320;2022-07-29T04:14:33;21.60;99.90
21565;DHT22;10943;48.738;9.320;2022-07-29T04:17:03;21.80;99.90
21565;DHT22;10943;48.738;9.320;2022-07-29T04:19:42;21.80;99.90
21565;DHT22;10943;48.738;9.320;2022-07-29T04:22:14;21.90;99.90
21565;DHT22;10943;48.738;9.320;2022-07-29T04:24:42;22.00;99.90
21565;DHT22;10943;48.738;9.320;2022-07-29T04:27:13;22.00;99.90
21565;DHT22;10943;48.738;9.320;2022-07-29T04:29:46;22.10;99.90
21565;DHT22;10943;48.738;9.320;2022-07-29T04:32:24;22.00;99.90
21565;DHT22;10943;48.738;9.320;2022-07-29T04:34:53;22.00;99.90
21565;DHT22;10943;48.738;9.320;2022-07-29T04:37:20;21.90;99.90
21565;DHT22;10943;48.738;9.320;2022-07-29T04:39:55;22.10;99.90
21565;DHT22;10943;48.738;9.320;2022-07-29T04:42:25;22.20;99.90
21565;DHT22;10943;48.738;9.320;2022-07-29T04:44:58;22.00;99.90
21565;DHT22;10943;48.738;9.320;2022-07-29T04:47:27;22.40;99.90
21565;DHT22;10943;48.738;9.320;2022-07-29T04:49:55;22.70;99.90
21565;DHT22;10943;48.738;9.320;2022-07-29T04:52:23;23.30;99.90
21565;DHT22;10943;48.738;9.320;2022-07-29T04:54:50;23.70;99.90
21565;DHT22;10943;48.738;9.320;2022-07-29T04:57:18;23.60;99.90
21565;DHT22;10943;48.738;9.320;2022-07-29T04:59:46;23.50;99.90
21565;DHT22;10943;48.738;9.320;2022-07-29T05:02:16;23.30;99.90
21565;DHT22;10943;48.738;9.320;2022-07-29T05:04:47;23.30;99.90
21565;DHT22;10943;48.738;9.320;2022-07-29T05:07:15;23.50;99.90
21565;DHT22;10943;48.738;9.320;2022-07-29T05:09:42;23.90;99.90
21565;DHT22;10943;48.738;9.320;2022-07-29T05:12:10;24.20;99.90
21565;DHT22;10943;48.738;9.320;2022-07-29T05:14:39;24.30;99.90
21565;DHT22;10943;48.738;9.320;2022-07-29T05:17:06;24.70;99.90
21565;DHT22;10943;48.738;9.320;2022-07-29T05:19:37;25.40;99.90
21565;DHT22;10943;48.738;9.320;2022-07-29T05:22:12;26.20;99.90
21565;DHT22;10943;48.738;9.320;2022-07-29T05:24:43;27.00;99.90
21565;DHT22;10943;48.738;9.320;2022-07-29T05:27:14;27.40;99.90
21565;DHT22;10943;48.738;9.320;2022-07-29T05:29:51;27.30;99.90
21565;DHT22;10943;48.738;9.320;2022-07-29T05:32:22;27.10;99.90
21565;DHT22;10943;48.738;9.320;2022-07-29T05:35:01;27.30;99.90
21565;DHT22;10943;48.738;9.320;2022-07-29T05:37:32;27.50;99.90
21565;DHT22;10943;48.738;9.320;2022-07-29T05:40:11;28.30;99.90
21565;DHT22;10943;48.738;9.320;2022-07-29T05:42:45;29.00;99.90
21565;DHT22;10943;48.738;9.320;2022-07-29T05:45:18;29.90;99.90
21565;DHT22;10943;48.738;9.320;2022-07-29T05:47:54;30.20;99.90
21565;DHT22;10943;48.738;9.320;2022-07-29T05:50:21;29.90;99.90
21565;DHT22;10943;48.738;9.320;2022-07-29T05:52:54;29.40;99.90
21565;DHT22;10943;48.738;9.320;2022-07-29T05:55:31;29.00;99.90
21565;DHT22;10943;48.738;9.320;2022-07-29T05:58:11;29.40;99.90
21565;DHT22;10943;48.738;9.320;2022-07-29T06:00:52;30.40;99.90
21565;DHT22;10943;48.738;9.320;2022-07-29T06:03:28;31.50;99.90
21565;DHT22;10943;48.738;9.320;2022-07-29T06:05:55;31.30;99.90
21565;DHT22;10943;48.738;9.320;2022-07-29T06:08:23;31.90;99.90
21565;DHT22;10943;48.738;9.320;2022-07-29T06:10:56;31.90;99.90
21565;DHT22;10943;48.738;9.320;2022-07-29T06:13:29;32.70;99.90
21565;DHT22;10943;48.738;9.320;2022-07-29T06:16:00;32.80;99.90
21565;DHT22;10943;48.738;9.320;2022-07-29T06:18:35;32.30;99.90
21565;DHT22;10943;48.738;9.320;2022-07-29T06:21:13;31.20;99.90
21565;DHT22;10943;48.738;9.320;2022-07-29T06:23:45;30.60;99.90
21565;DHT22;10943;48.738;9.320;2022-07-29T06:26:14;29.90;99.90
21565;DHT22;10943;48.738;9.320;2022-07-29T06:28:42;30.70;99.90
21565;DHT22;10943;48.738;9.320;2022-07-29T06:31:10;32.00;99.90
21565;DHT22;10943;48.738;9.320;2022-07-29T06:33:41;33.30;99.90
21565;DHT22;10943;48.738;9.320;2022-07-29T06:36:11;34.70;99.90
21565;DHT22;10943;48.738;9.320;2022-07-29T06:38:39;35.50;99.90
21565;DHT22;10943;48.738;9.320;2022-07-29T06:41:16;35.60;99.90
21565;DHT22;10943;48.738;9.320;2022-07-29T06:43:44;35.60;99.90
21565;DHT22;10943;48.738;9.320;2022-07-29T06:46:22;36.00;99.90
21565;DHT22;10943;48.738;9.320;2022-07-29T06:48:51;36.90;99.90
21565;DHT22;10943;48.738;9.320;2022-07-29T06:51:22;37.80;98.90
21565;DHT22;10943;48.738;9.320;2022-07-29T06:53:51;37.50;97.20
21565;DHT22;10943;48.738;9.320;2022-07-29T06:56:34;37.50;97.10
21565;DHT22;10943;48.738;9.320;2022-07-29T06:59:09;38.10;96.30
21565;DHT22;10943;48.738;9.320;2022-07-29T07:01:44;38.50;94.40
21565;DHT22;10943;48.738;9.320;2022-07-29T07:04:26;39.50;93.30
21565;DHT22;10943;48.738;9.320;2022-07-29T07:06:56;40.40;90.40
21565;DHT22;10943;48.738;9.320;2022-07-29T07:09:28;41.10;88.40
21565;DHT22;10943;48.738;9.320;2022-07-29T07:12:12;40.50;87.10
21565;DHT22;10943;48.738;9.320;2022-07-29T07:14:43;38.70;89.70
21565;DHT22;10943;48.738;9.320;2022-07-29T07:17:11;36.10;91.90
21565;DHT22;10943;48.738;9.320;2022-07-29T07:19:44;34.10;95.20
21565;DHT22;10943;48.738;9.320;2022-07-29T07:22:22;33.30;96.80
21565;DHT22;10943;48.738;9.320;2022-07-29T07:25:17;33.10;97.40
21565;DHT22;10943;48.738;9.320;2022-07-29T07:27:45;33.00;98.40
21565;DHT22;10943;48.738;9.320;2022-07-29T07:30:13;33.60;98.20
21565;DHT22;10943;48.738;9.320;2022-07-29T07:32:41;34.70;96.40
21565;DHT22;10943;48.738;9.320;2022-07-29T07:35:09;34.60;96.60
21565;DHT22;10943;48.738;9.320;2022-07-29T07:37:44;34.50;97.00
21565;DHT22;10943;48.738;9.320;2022-07-29T07:40:12;33.80;97.10
21565;DHT22;10943;48.738;9.320;2022-07-29T07:42:44;33.10;98.30
21565;DHT22;10943;48.738;9.320;2022-07-29T07:45:12;33.20;98.40
21565;DHT22;10943;48.738;9.320;2022-07-29T07:47:42;32.40;98.80
21565;DHT22;10943;48.738;9.320;2022-07-29T07:50:13;31.40;99.90
21565;DHT22;10943;48.738;9.320;2022-07-29T07:52:53;30.50;99.90
21565;DHT22;10943;48.738;9.320;2022-07-29T07:55:25;31.60;99.90
21565;DHT22;10943;48.738;9.320;2022-07-29T07:57:54;33.60;99.70
21565;DHT22;10943;48.738;9.320;2022-07-29T08:00:23;35.30;97.60
21565;DHT22;10943;48.738;9.320;2022-07-29T08:02:50;36.80;95.00
21565;DHT22;10943;48.738;9.320;2022-07-29T08:05:18;37.30;93.30
21565;DHT22;10943;48.738;9.320;2022-07-29T08:07:46;37.30;93.40
21565;DHT22;10943;48.738;9.320;2022-07-29T08:10:15;37.90;92.50
21565;DHT22;10943;48.738;9.320;2022-07-29T08:13:07;38.30;91.00
21565;DHT22;10943;48.738;9.320;2022-07-29T08:15:38;37.90;91.50
21565;DHT22;10943;48.738;9.320;2022-07-29T08:18:07;38.20;91.50
21565;DHT22;10943;48.738;9.320;2022-07-29T08:20:36;39.20;89.40
21565;DHT22;10943;48.738;9.320;2022-07-29T08:23:07;38.70;88.80
21565;DHT22;10943;48.738;9.320;2022-07-29T08:25:37;38.20;90.20
21565;DHT22;10943;48.738;9.320;2022-07-29T08:28:09;37.80;90.20
21565;DHT22;10943;48.738;9.320;2022-07-29T08:30:36;38.10;90.50
21565;DHT22;10943;48.738;9.320;2022-07-29T08:33:04;37.90;90.20
21565;DHT22;10943;48.738;9.320;2022-07-29T08:35:32;37.80;90.40
21565;DHT22;10943;48.738;9.320;2022-07-29T08:38:02;38.40;89.10
21565;DHT22;10943;48.738;9.320;2022-07-29T08:40:30;38.80;87.60
21565;DHT22;10943;48.738;9.320;2022-07-29T08:43:07;39.10;88.00
21565;DHT22;10943;48.738;9.320;2022-07-29T08:45:46;40.60;85.60
21565;DHT22;10943;48.738;9.320;2022-07-29T08:48:22;41.40;81.80
21565;DHT22;10943;48.738;9.320;2022-07-29T08:50:56;40.80;82.00
21565;DHT22;10943;48.738;9.320;2022-07-29T08:53:26;41.90;81.10
21565;DHT22;10943;48.738;9.320;2022-07-29T08:55:54;43.20;77.90
21565;DHT22;10943;48.738;9.320;2022-07-29T08:58:32;42.90;75.60
21565;DHT22;10943;48.738;9.320;2022-07-29T09:01:04;42.60;75.90
21565;DHT22;10943;48.738;9.320;2022-07-29T09:03:41;43.80;73.90
21565;DHT22;10943;48.738;9.320;2022-07-29T09:06:18;45.10;71.80
21565;DHT22;10943;48.738;9.320;2022-07-29T09:08:48;46.20;68.00
21565;DHT22;10943;48.738;9.320;2022-07-29T09:11:19;47.30;65.10
21565;DHT22;10943;48.738;9.320;2022-07-29T09:13:46;48.10;62.80
21565;DHT22;10943;48.738;9.320;2022-07-29T09:16:16;49.50;59.80
21565;DHT22;10943;48.738;9.320;2022-07-29T09:19:22;48.90;58.60
21565;DHT22;10943;48.738;9.320;2022-07-29T09:21:59;49.20;58.40
21565;DHT22;10943;48.738;9.320;2022-07-29T09:24:44;50.00;56.50
21565;DHT22;10943;48.738;9.320;2022-07-29T09:27:27;50.00;55.40
21565;DHT22;10943;48.738;9.320;2022-07-29T09:30:04;48.20;58.00
21565;DHT22;10943;48.738;9.320;2022-07-29T09:32:59;47.70;58.00
21565;DHT22;10943;48.738;9.320;2022-07-29T09:35:30;48.30;57.40
21565;DHT22;10943;48.738;9.320;2022-07-29T09:37:58;48.50;56.60
21565;DHT22;10943;48.738;9.320;2022-07-29T09:40:59;48.20;56.90
21565;DHT22;10943;48.738;9.320;2022-07-29T09:43:33;48.90;56.10
21565;DHT22;10943;48.738;9.320;2022-07-29T09:46:11;48.80;56.50
21565;DHT22;10943;48.738;9.320;2022-07-29T09:48:40;49.60;55.40
21565;DHT22;10943;48.738;9.320;2022-07-29T09:51:18;50.30;54.40
21565;DHT22;10943;48.738;9.320;2022-07-29T09:53:59;49.40;54.60
21565;DHT22;10943;48.738;9.320;2022-07-29T09:56:42;49.30;55.00
21565;DHT22;10943;48.738;9.320;2022-07-29T09:59:15;48.90;55.10
21565;DHT22;10943;48.738;9.320;2022-07-29T10:01:55;47.60;55.70
21565;DHT22;10943;48.738;9.320;2022-07-29T10:04:25;47.40;56.30
21565;DHT22;10943;48.738;9.320;2022-07-29T10:07:07;45.80;57.60
21565;DHT22;10943;48.738;9.320;2022-07-29T10:09:36;43.00;61.10
21565;DHT22;10943;48.738;9.320;2022-07-29T10:14:36;43.40;62.40
21565;DHT22;10943;48.738;9.320;2022-07-29T10:17:08;44.60;60.40
21565;DHT22;10943;48.738;9.320;2022-07-29T10:19:38;46.30;58.20
21565;DHT22;10943;48.738;9.320;2022-07-29T10:22:08;47.30;56.70
21565;DHT22;10943;48.738;9.320;2022-07-29T10:24:39;47.90;56.40
21565;DHT22;10943;48.738;9.320;2022-07-29T10:27:12;46.90;56.20
21565;DHT22;10943;48.738;9.320;2022-07-29T10:29:54;45.60;57.70
21565;DHT22;10943;48.738;9.320;2022-07-29T10:43:33;43.90;59.50
21565;DHT22;10943;48.738;9.320;2022-07-29T10:46:40;43.60;60.10
21565;DHT22;10943;48.738;9.320;2022-07-29T10:52:56;43.30;61.00
21565;DHT22;10943;48.738;9.320;2022-07-29T10:55:55;42.60;62.80
21565;DHT22;10943;48.738;9.320;2022-07-29T10:59:44;42.10;62.30
21565;DHT22;10943;48.738;9.320;2022-07-29T11:06:24;40.80;64.50
21565;DHT22;10943;48.738;9.320;2022-07-29T11:09:29;40.40;65.70
21565;DHT22;10943;48.738;9.320;2022-07-29T11:15:06;38.50;69.20
21565;DHT22;10943;48.738;9.320;2022-07-29T11:31:45;33.90;77.40
21565;DHT22;10943;48.738;9.320;2022-07-29T11:34:45;32.30;88.60
21565;DHT22;10943;48.738;9.320;2022-07-29T11:37:16;28.30;98.00
21565;DHT22;10943;48.738;9.320;2022-07-29T11:45:12;21.80;99.90
21565;DHT22;10943;48.738;9.320;2022-07-29T11:48:05;20.70;99.90
21565;DHT22;10943;48.738;9.320;2022-07-29T11:50:56;21.10;99.90
21565;DHT22;10943;48.738;9.320;2022-07-29T11:53:27;21.70;99.90
21565;DHT22;10943;48.738;9.320;2022-07-29T11:56:00;22.20;99.90
21565;DHT22;10943;48.738;9.320;2022-07-29T11:58:29;22.10;99.90
21565;DHT22;10943;48.738;9.320;2022-07-29T12:01:07;21.90;99.90
21565;DHT22;10943;48.738;9.320;2022-07-29T12:03:45;21.90;99.90
21565;DHT22;10943;48.738;9.320;2022-07-29T12:06:15;22.20;99.90
21565;DHT22;10943;48.738;9.320;2022-07-29T12:08:46;22.50;99.90
21565;DHT22;10943;48.738;9.320;2022-07-29T12:11:41;22.80;99.90
21565;DHT22;10943;48.738;9.320;2022-07-29T12:14:30;22.70;99.90
21565;DHT22;10943;48.738;9.320;2022-07-29T12:17:03;22.30;99.90
21565;DHT22;10943;48.738;9.320;2022-07-29T12:19:44;22.20;99.90
21565;DHT22;10943;48.738;9.320;2022-07-29T12:22:37;22.30;99.90
21565;DHT22;10943;48.738;9.320;2022-07-29T12:25:14;22.40;99.90
21565;DHT22;10943;48.738;9.320;2022-07-29T12:28:03;22.80;99.90
21565;DHT22;10943;48.738;9.320;2022-07-29T12:33:24;23.60;99.90
21565;DHT22;10943;48.738;9.320;2022-07-29T12:36:01;23.70;99.90
21565;DHT22;10943;48.738;9.320;2022-07-29T12:38:44;23.80;99.90
21565;DHT22;10943;48.738;9.320;2022-07-29T12:41:19;24.00;99.90
21565;DHT22;10943;48.738;9.320;2022-07-29T12:43:54;24.20;99.90
21565;DHT22;10943;48.738;9.320;2022-07-29T12:46:33;24.30;99.90
21565;DHT22;10943;48.738;9.320;2022-07-29T12:49:06;24.40;99.90
21565;DHT22;10943;48.738;9.320;2022-07-29T12:51:39;24.50;99.90
21565;DHT22;10943;48.738;9.320;2022-07-29T12:54:15;24.50;99.90
21565;DHT22;10943;48.738;9.320;2022-07-29T12:57:05;24.60;99.90
21565;DHT22;10943;48.738;9.320;2022-07-29T13:00:08;24.30;99.90
21565;DHT22;10943;48.738;9.320;2022-07-29T13:02:42;24.10;99.90
21565;DHT22;10943;48.738;9.320;2022-07-29T13:05:57;24.00;99.90
21565;DHT22;10943;48.738;9.320;2022-07-29T13:08:36;23.90;99.90
21565;DHT22;10943;48.738;9.320;2022-07-29T13:14:54;23.90;99.90
21565;DHT22;10943;48.738;9.320;2022-07-29T13:21:12;24.20;99.90
21565;DHT22;10943;48.738;9.320;2022-07-29T13:24:00;24.40;99.90
21565;DHT22;10943;48.738;9.320;2022-07-29T13:26:39;24.50;99.90
21565;DHT22;10943;48.738;9.320;2022-07-29T13:29:12;24.50;99.90
21565;DHT22;10943;48.738;9.320;2022-07-29T13:31:44;24.40;99.90
21565;DHT22;10943;48.738;9.320;2022-07-29T13:41:42;24.10;99.90
21565;DHT22;10943;48.738;9.320;2022-07-29T13:47:56;23.80;99.90
21565;DHT22;10943;48.738;9.320;2022-07-29T13:54:10;24.00;99.90
21565;DHT22;10943;48.738;9.320;2022-07-29T13:56:40;24.30;99.90
21565;DHT22;10943;48.738;9.320;2022-07-29T14:02:50;24.70;99.90
21565;DHT22;10943;48.738;9.320;2022-07-29T14:05:18;24.70;99.90
21565;DHT22;10943;48.738;9.320;2022-07-29T14:07:45;24.60;99.90
21565;DHT22;10943;48.738;9.320;2022-07-29T14:10:12;24.40;99.90
21565;DHT22;10943;48.738;9.320;2022-07-29T14:12:45;24.70;99.90
21565;DHT22;10943;48.738;9.320;2022-07-29T14:15:12;24.30;99.90
21565;DHT22;10943;48.738;9.320;2022-07-29T14:17:44;24.70;99.90
21565;DHT22;10943;48.738;9.320;2022-07-29T14:20:11;25.00;99.90
21565;DHT22;10943;48.738;9.320;2022-07-29T14:22:39;25.40;99.90
21565;DHT22;10943;48.738;9.320;2022-07-29T14:25:10;25.60;99.90
21565;DHT22;10943;48.738;9.320;2022-07-29T14:27:41;26.10;99.90
21565;DHT22;10943;48.738;9.320;2022-07-29T14:30:12;26.50;99.90
21565;DHT22;10943;48.738;9.320;2022-07-29T14:32:42;26.50;99.90
21565;DHT22;10943;48.738;9.320;2022-07-29T14:35:10;26.50;99.90
21565;DHT22;10943;48.738;9.320;2022-07-29T14:37:38;26.20;99.90
21565;DHT22;10943;48.738;9.320;2022-07-29T14:40:07;25.50;99.90
21565;DHT22;10943;48.738;9.320;2022-07-29T14:42:36;25.40;99.90
21565;DHT22;10943;48.738;9.320;2022-07-29T14:45:06;25.30;99.90
21565;DHT22;10943;48.738;9.320;2022-07-29T14:47:41;25.60;99.90
21565;DHT22;10943;48.738;9.320;2022-07-29T14:50:09;25.90;99.90
21565;DHT22;10943;48.738;9.320;2022-07-29T14:52:41;26.10;99.90
21565;DHT22;10943;48.738;9.320;2022-07-29T14:55:09;26.10;99.90
21565;DHT22;10943;48.738;9.320;2022-07-29T14:57:49;25.90;99.90
21565;DHT22;10943;48.738;9.320;2022-07-29T15:00:25;26.10;99.90
21565;DHT22;10943;48.738;9.320;2022-07-29T15:02:53;26.00;99.90
21565;DHT22;10943;48.738;9.320;2022-07-29T15:05:32;26.10;99.90
21565;DHT22;10943;48.738;9.320;2022-07-29T15:08:00;26.20;99.90
21565;DHT22;10943;48.738;9.320;2022-07-29T15:10:28;26.00;99.90
21565;DHT22;10943;48.738;9.320;2022-07-29T15:12:56;25.90;99.90
21565;DHT22;10943;48.738;9.320;2022-07-29T15:15:24;26.00;99.90
21565;DHT22;10943;48.738;9.320;2022-07-29T15:17:56;26.10;99.90
21565;DHT22;10943;48.738;9.320;2022-07-29T15:20:27;26.00;99.90
21565;DHT22;10943;48.738;9.320;2022-07-29T15:23:02;26.20;99.90
21565;DHT22;10943;48.738;9.320;2022-07-29T15:25:31;25.90;99.90
21565;DHT22;10943;48.738;9.320;2022-07-29T15:27:59;26.10;99.90
21565;DHT22;10943;48.738;9.320;2022-07-29T15:30:30;26.20;99.90
21565;DHT22;10943;48.738;9.320;2022-07-29T15:33:02;26.30;99.90
21565;DHT22;10943;48.738;9.320;2022-07-29T15:35:32;26.30;99.90
21565;DHT22;10943;48.738;9.320;2022-07-29T15:38:27;26.30;99.90
21565;DHT22;10943;48.738;9.320;2022-07-29T15:41:44;26.70;99.90
21565;DHT22;10943;48.738;9.320;2022-07-29T15:44:15;26.60;99.90
21565;DHT22;10943;48.738;9.320;2022-07-29T15:46:42;26.70;99.90
21565;DHT22;10943;48.738;9.320;2022-07-29T15:49:39;26.70;99.90
21565;DHT22;10943;48.738;9.320;2022-07-29T15:52:17;26.80;99.90
21565;DHT22;10943;48.738;9.320;2022-07-29T15:54:54;26.60;99.90
21565;DHT22;10943;48.738;9.320;2022-07-29T15:57:24;26.90;99.90
21565;DHT22;10943;48.738;9.320;2022-07-29T15:59:52;26.90;99.90
21565;DHT22;10943;48.738;9.320;2022-07-29T16:02:22;27.00;99.90
21565;DHT22;10943;48.738;9.320;2022-07-29T16:04:53;27.30;99.90
21565;DHT22;10943;48.738;9.320;2022-07-29T16:07:20;27.50;99.90
21565;DHT22;10943;48.738;9.320;2022-07-29T16:09:48;27.80;99.90
21565;DHT22;10943;48.738;9.320;2022-07-29T16:12:19;28.10;99.90
21565;DHT22;10943;48.738;9.320;2022-07-29T16:14:49;28.30;99.90
21565;DHT22;10943;48.738;9.320;2022-07-29T16:17:17;28.30;99.90
21565;DHT22;10943;48.738;9.320;2022-07-29T16:19:51;28.50;99.90
21565;DHT22;10943;48.738;9.320;2022-07-29T16:22:20;28.60;99.90
21565;DHT22;10943;48.738;9.320;2022-07-29T16:24:55;28.70;99.90
21565;DHT22;10943;48.738;9.320;2022-07-29T16:27:22;28.30;99.90
21565;DHT22;10943;48.738;9.320;2022-07-29T16:30:01;28.20;99.90
21565;DHT22;10943;48.738;9.320;2022-07-29T16:32:30;27.80;99.90
21565;DHT22;10943;48.738;9.320;2022-07-29T16:34:57;27.80;99.90
21565;DHT22;10943;48.738;9.320;2022-07-29T16:37:27;27.70;99.90
21565;DHT22;10943;48.738;9.320;2022-07-29T16:39:59;27.80;99.90
21565;DHT22;10943;48.738;9.320;2022-07-29T16:42:27;27.90;99.90
21565;DHT22;10943;48.738;9.320;2022-07-29T16:45:13;27.90;99.90
21565;DHT22;10943;48.738;9.320;2022-07-29T16:47:44;27.90;99.90
21565;DHT22;10943;48.738;9.320;2022-07-29T16:50:14;27.80;99.90
21565;DHT22;10943;48.738;9.320;2022-07-29T16:52:42;27.80;99.90
21565;DHT22;10943;48.738;9.320;2022-07-29T16:55:09;27.80;99.90
21565;DHT22;10943;48.738;9.320;2022-07-29T16:57:39;27.90;99.90
21565;DHT22;10943;48.738;9.320;2022-07-29T17:00:09;27.90;99.90
21565;DHT22;10943;48.738;9.320;2022-07-29T17:02:38;27.80;99.90
21565;DHT22;10943;48.738;9.320;2022-07-29T17:05:09;27.60;99.90
21565;DHT22;10943;48.738;9.320;2022-07-29T17:07:41;27.80;99.90
21565;DHT22;10943;48.738;9.320;2022-07-29T17:10:09;27.70;99.90
21565;DHT22;10943;48.738;9.320;2022-07-29T17:12:44;27.70;99.90
21565;DHT22;10943;48.738;9.320;2022-07-29T17:15:17;27.60;99.90
21565;DHT22;10943;48.738;9.320;2022-07-29T17:17:46;27.50;99.90
21565;DHT22;10943;48.738;9.320;2022-07-29T17:20:25;27.40;99.90
21565;DHT22;10943;48.738;9.320;2022-07-29T17:22:58;27.40;99.90
21565;DHT22;10943;48.738;9.320;2022-07-29T17:25:29;27.40;99.90
21565;DHT22;10943;48.738;9.320;2022-07-29T17:27:59;27.20;99.90
21565;DHT22;10943;48.738;9.320;2022-07-29T17:30:53;27.10;99.90
21565;DHT22;10943;48.738;9.320;2022-07-29T17:33:23;27.20;99.90
21565;DHT22;10943;48.738;9.320;2022-07-29T17:35:54;27.10;99.90
21565;DHT22;10943;48.738;9.320;2022-07-29T17:38:41;27.00;99.90
21565;DHT22;10943;48.738;9.320;2022-07-29T17:41:10;27.00;99.90
21565;DHT22;10943;48.738;9.320;2022-07-29T17:43:38;27.10;99.90
21565;DHT22;10943;48.738;9.320;2022-07-29T17:46:06;27.00;99.90
21565;DHT22;10943;48.738;9.320;2022-07-29T17:48:38;26.80;99.90
21565;DHT22;10943;48.738;9.320;2022-07-29T17:51:06;26.90;99.90
21565;DHT22;10943;48.738;9.320;2022-07-29T17:53:37;27.00;99.90
21565;DHT22;10943;48.738;9.320;2022-07-29T17:56:06;26.90;99.90
21565;DHT22;10943;48.738;9.320;2022-07-29T17:58:34;27.00;99.90
21565;DHT22;10943;48.738;9.320;2022-07-29T18:01:02;27.00;99.90
21565;DHT22;10943;48.738;9.320;2022-07-29T18:03:30;27.00;99.90
21565;DHT22;10943;48.738;9.320;2022-07-29T18:05:58;27.00;99.90
21565;DHT22;10943;48.738;9.320;2022-07-29T18:08:30;26.80;99.90
21565;DHT22;10943;48.738;9.320;2022-07-29T18:11:01;27.00;99.90
21565;DHT22;10943;48.738;9.320;2022-07-29T18:13:29;27.20;99.90
21565;DHT22;10943;48.738;9.320;2022-07-29T18:16:04;27.30;99.90
21565;DHT22;10943;48.738;9.320;2022-07-29T18:18:43;27.50;99.90
21565;DHT22;10943;48.738;9.320;2022-07-29T18:21:12;27.60;99.90